This is the latest recevied weather packets stored in our database for station/object K4SPB-4. If no packets are shown the sender has not sent any weather packets the latest 10 day(s).
| Time | Temp. | Humidity | Pressure | Rain* | Wind** | Luminosity | Snow |
|---|---|---|---|---|---|---|---|
| 1778082626 | 10.56° C | 97% | 1013.1 hPa | 2.29 mm | - | - | - |
| 1778081441 | 10.56° C | 97% | 1013.3 hPa | 2.29 mm | - | - | - |
| 1778076624 | 10.56° C | 97% | 1013.5 hPa | 5.84 mm | - | - | - |
| 1778074529 | 10.56° C | 97% | 1012.4 hPa | 0.25 mm | - | - | - |
| 1778068252 | 10.56° C | 97% | 1010.4 hPa | 0.76 mm | - | - | - |
| 1778067028 | 10.56° C | 97% | 1010.3 hPa | 2.54 mm | - | - | - |
| 1778066466 | 10.56° C | 97% | 1009.6 hPa | 3.56 mm | - | - | - |
| 1778064017 | 11.11° C | 97% | 1010.8 hPa | 6.86 mm | - | - | - |
| 1778059220 | 11.67° C | 96% | 1008.8 hPa | 22.86 mm | - | - | - |
| 1778057434 | 11.67° C | 96% | 1007.7 hPa | 29.72 mm | - | - | - |
| 1778055025 | 11.67° C | 95% | 1007.5 hPa | 17.02 mm | - | - | - |
| 1778053819 | 12.22° C | 94% | 1007.4 hPa | 6.1 mm | - | - | - |
| 1778048418 | 22.22° C | 83% | 1005.7 hPa | 0 mm | - | - | - |
| 1778044827 | 21.67° C | 84% | 1005.5 hPa | 0 mm | - | - | - |
| 1778044223 | 21.11° C | 84% | 1005.7 hPa | 0 mm | - | - | - |
| 1778035872 | 20.56° C | 84% | 1007.2 hPa | 0 mm | - | - | - |
| 1778035231 | 20.56° C | 84% | 1007.3 hPa | 0 mm | - | - | - |
| 1778034028 | 21.11° C | 84% | 1006.9 hPa | 0 mm | - | - | - |
| 1778030434 | 21.11° C | 86% | 1006.4 hPa | 0 mm | - | - | - |
| 1778029832 | 21.11° C | 87% | 1006.4 hPa | 0 mm | - | - | - |
| 1778027421 | 20.56° C | 87% | 1006.5 hPa | 0 mm | - | - | - |
| 1778022023 | 20.56° C | 87% | 1006.4 hPa | 0 mm | - | - | - |
| 1778013634 | 18.33° C | 93% | 1007.5 hPa | 0 mm | - | - | - |
| 1778013032 | 18.33° C | 92% | 1007.5 hPa | 0 mm | - | - | - |
| 1778001627 | 16.11° C | 96% | 1008.6 hPa | 1.78 mm | - | - | - |
* Rain latest hour (hover to see other rain measurements)
** Current wind speed in m/s (hover to see current wind gust speed)